createdAt,value
2018-01-10T00:00:33.574Z,4.50
2018-01-10T00:03:08.061Z,4.85
2018-01-10T00:05:42.596Z,4.78
2018-01-10T00:08:16.265Z,3.95
2018-01-10T00:10:50.601Z,4.12
2018-01-10T00:13:24.144Z,3.97
2018-01-10T00:15:58.716Z,2.90
2018-01-10T00:18:32.426Z,3.00
2018-01-10T00:21:06.137Z,2.75
2018-01-10T00:23:39.828Z,2.40
2018-01-10T00:26:13.354Z,3.05
2018-01-10T00:28:47.032Z,2.60
2018-01-10T00:31:20.644Z,3.05
2018-01-10T00:33:55.169Z,2.17
2018-01-10T00:36:29.472Z,2.12
2018-01-10T00:39:03.053Z,2.70
2018-01-10T00:41:36.674Z,2.28
2018-01-10T00:44:10.303Z,2.08
2018-01-10T00:46:43.968Z,2.70
2018-01-10T00:49:17.538Z,2.45
2018-01-10T00:51:51.197Z,2.25
2018-01-10T00:54:24.797Z,1.90
2018-01-10T00:56:58.396Z,1.60
2018-01-10T00:59:31.989Z,4.75
2018-01-10T01:02:05.576Z,6.75
2018-01-10T01:04:39.310Z,3.40
2018-01-10T01:07:13.113Z,2.78
2018-01-10T01:09:46.683Z,2.60
2018-01-10T01:12:20.301Z,2.58
2018-01-10T01:14:54.613Z,2.70
2018-01-10T01:17:28.207Z,2.53
2018-01-10T01:20:01.809Z,2.55
2018-01-10T01:22:36.447Z,1.70
2018-01-10T01:25:10.746Z,2.87
2018-01-10T01:27:44.269Z,2.08
2018-01-10T01:30:17.834Z,2.80
2018-01-10T01:32:51.392Z,1.77
2018-01-10T01:35:25.048Z,2.00
2018-01-10T01:37:59.380Z,1.83
2018-01-10T01:40:33.850Z,1.95
2018-01-10T01:43:08.217Z,2.15
2018-01-10T01:45:42.085Z,2.10
2018-01-10T01:48:15.729Z,2.60
2018-01-10T01:50:49.312Z,2.33
2018-01-10T01:53:22.926Z,2.75
2018-01-10T01:55:56.567Z,2.92
2018-01-10T01:58:30.118Z,2.60
2018-01-10T02:01:04.441Z,4.25
2018-01-10T02:03:38.034Z,3.92
2018-01-10T02:06:11.673Z,3.25
2018-01-10T02:08:46.156Z,2.05
2018-01-10T02:11:19.764Z,1.75
2018-01-10T02:13:53.369Z,2.03
2018-01-10T02:16:27.085Z,2.80
2018-01-10T02:19:00.662Z,2.58
2018-01-10T02:21:34.275Z,2.08
2018-01-10T02:24:07.873Z,2.50
2018-01-10T02:26:41.419Z,2.35
2018-01-10T02:29:15.074Z,1.90
2018-01-10T02:31:48.676Z,2.67
2018-01-10T02:34:22.477Z,2.40
2018-01-10T02:36:56.174Z,2.65
2018-01-10T02:39:29.788Z,2.40
2018-01-10T02:42:03.314Z,2.53
2018-01-10T02:44:36.993Z,2.45
2018-01-10T02:47:10.579Z,2.87
2018-01-10T02:49:44.098Z,3.28
2018-01-10T02:52:17.840Z,2.70
2018-01-10T02:54:51.470Z,2.40
2018-01-10T02:57:25.801Z,2.45
2018-01-10T02:59:59.404Z,3.15
2018-01-10T03:02:33.128Z,4.95
2018-01-10T03:05:07.638Z,4.47
2018-01-10T03:07:41.243Z,3.85
2018-01-10T03:10:14.996Z,3.50
2018-01-10T03:12:49.454Z,4.12
2018-01-10T03:15:23.090Z,3.75
2018-01-10T03:17:56.864Z,3.60
2018-01-10T03:20:30.401Z,3.65
2018-01-10T03:23:04.161Z,3.75
2018-01-10T03:25:37.739Z,3.55
2018-01-10T03:28:11.292Z,3.45
2018-01-10T03:30:44.906Z,3.10
2018-01-10T03:33:18.452Z,3.25
2018-01-10T03:35:52.792Z,2.70
2018-01-10T03:38:26.482Z,2.72
2018-01-10T03:41:00.050Z,1.90
2018-01-10T03:43:33.596Z,2.60
2018-01-10T03:46:07.304Z,3.65
2018-01-10T03:48:40.886Z,3.15
2018-01-10T03:51:15.183Z,3.42
2018-01-10T03:53:48.813Z,3.78
2018-01-10T03:56:23.129Z,2.65
2018-01-10T03:58:56.716Z,3.40
2018-01-10T04:01:30.312Z,3.75
2018-01-10T04:04:04.959Z,3.25
2018-01-10T04:06:38.582Z,4.65
2018-01-10T04:09:12.147Z,5.20
2018-01-10T04:11:46.477Z,4.22
2018-01-10T04:14:20.981Z,3.72
2018-01-10T04:16:55.435Z,2.50
2018-01-10T04:19:29.165Z,2.92
2018-01-10T04:22:02.939Z,3.00
2018-01-10T04:24:36.893Z,2.75
2018-01-10T04:27:10.599Z,2.97
2018-01-10T04:29:45.092Z,3.17
2018-01-10T04:32:19.784Z,3.00
2018-01-10T04:34:53.444Z,4.87
2018-01-10T04:37:27.042Z,3.35
2018-01-10T04:40:00.783Z,3.35
2018-01-10T04:42:34.377Z,3.72
2018-01-10T04:45:08.070Z,3.30
2018-01-10T04:47:41.687Z,3.10
2018-01-10T04:50:15.279Z,3.00
2018-01-10T04:52:48.913Z,3.40
2018-01-10T04:55:22.726Z,3.45
2018-01-10T04:57:56.498Z,2.70
2018-01-10T05:00:30.110Z,2.50
2018-01-10T05:03:03.697Z,2.53
2018-01-10T05:05:38.324Z,2.78
2018-01-10T05:08:11.993Z,4.50
2018-01-10T05:10:45.659Z,4.87
2018-01-10T05:13:19.336Z,5.15
2018-01-10T05:15:53.076Z,9.95
2018-01-10T05:18:26.732Z,3.87
2018-01-10T05:21:00.278Z,3.22
2018-01-10T05:23:33.863Z,4.30
2018-01-10T05:26:08.252Z,4.87
2018-01-10T05:28:41.876Z,2.55
2018-01-10T05:31:15.448Z,3.72
2018-01-10T05:33:48.980Z,4.05
2018-01-10T05:36:22.654Z,4.20
2018-01-10T05:38:56.412Z,5.47
2018-01-10T05:41:30.198Z,6.12
2018-01-10T05:44:03.765Z,5.05
2018-01-10T05:46:38.292Z,5.55
2018-01-10T05:49:11.928Z,5.22
2018-01-10T05:51:45.692Z,4.82
2018-01-10T05:54:19.375Z,5.62
2018-01-10T05:56:53.874Z,5.57
2018-01-10T05:59:27.555Z,3.50
2018-01-10T06:02:01.217Z,3.95
2018-01-10T06:04:34.769Z,3.75
2018-01-10T06:07:08.448Z,8.73
2018-01-10T06:09:42.128Z,6.97
2018-01-10T06:12:15.631Z,6.35
2018-01-10T06:14:49.224Z,5.03
2018-01-10T06:17:23.740Z,4.43
2018-01-10T06:19:57.506Z,5.60
2018-01-10T06:22:31.056Z,5.60
2018-01-10T06:25:04.961Z,5.68
2018-01-10T06:27:38.640Z,3.65
2018-01-10T06:30:12.265Z,2.10
2018-01-10T06:32:46.794Z,2.83
2018-01-10T06:35:20.382Z,2.60
2018-01-10T06:37:53.993Z,2.70
2018-01-10T06:40:27.711Z,2.50
2018-01-10T06:43:01.293Z,2.17
2018-01-10T06:45:34.884Z,3.05
2018-01-10T06:48:08.493Z,2.70
2018-01-10T15:22:13.299Z,45.63
2018-01-10T15:24:46.941Z,33.85
2018-01-10T15:27:21.341Z,8.13
2018-01-10T15:29:55.031Z,7.03
2018-01-10T15:32:28.563Z,8.18
2018-01-10T15:35:02.856Z,4.32
2018-01-10T15:37:36.360Z,8.38
2018-01-10T15:40:09.911Z,10.68
2018-01-10T15:42:43.498Z,21.37
2018-01-10T15:45:17.020Z,11.55
2018-01-10T15:47:50.555Z,9.77
2018-01-10T15:50:24.201Z,9.60
2018-01-10T15:52:57.940Z,8.35
2018-01-10T15:55:32.493Z,7.90
2018-01-10T15:58:06.043Z,5.45
2018-01-10T16:00:39.696Z,4.25
2018-01-10T16:03:13.256Z,6.28
2018-01-10T16:05:47.580Z,3.80
2018-01-10T16:08:21.187Z,17.08
2018-01-10T16:10:54.783Z,23.70
2018-01-10T16:13:28.391Z,111.60
2018-01-10T16:16:01.992Z,101.78
2018-01-10T16:18:35.573Z,107.22
2018-01-10T16:21:09.125Z,192.15
2018-01-10T16:23:42.827Z,241.10
2018-01-10T16:26:16.324Z,231.77
2018-01-10T16:28:49.896Z,193.87
2018-01-10T16:31:24.205Z,47.30
2018-01-10T16:33:57.789Z,17.20
2018-01-10T16:36:31.435Z,6.82
2018-01-10T16:39:04.994Z,5.82
2018-01-10T16:41:39.322Z,7.43
2018-01-10T16:44:13.007Z,7.43
2018-01-10T16:46:47.341Z,11.23
2018-01-10T16:49:21.751Z,6.62
2018-01-10T16:51:56.064Z,5.55
2018-01-10T16:54:29.776Z,6.97
2018-01-10T16:57:03.313Z,7.35
2018-01-10T16:59:36.894Z,8.15
2018-01-10T17:02:10.439Z,8.88
2018-01-10T17:04:44.792Z,6.70
2018-01-10T17:07:18.329Z,5.90
2018-01-10T17:09:51.898Z,14.57
2018-01-10T17:12:26.413Z,20.05
2018-01-10T17:15:00.034Z,21.33
2018-01-10T17:17:33.598Z,35.88
2018-01-10T17:20:07.147Z,42.50
2018-01-10T17:22:40.843Z,75.95
2018-01-10T17:25:14.446Z,58.50
2018-01-10T17:27:47.950Z,75.90
2018-01-10T17:30:21.541Z,108.60
2018-01-10T17:32:55.943Z,101.32
2018-01-10T17:35:30.472Z,81.45
2018-01-10T17:38:04.168Z,58.90
2018-01-10T17:40:37.825Z,36.45
2018-01-10T17:43:12.298Z,39.70
2018-01-10T17:45:46.102Z,38.72
2018-01-10T17:48:19.677Z,36.92
2018-01-10T17:50:53.220Z,45.42
2018-01-10T17:53:26.917Z,27.80
2018-01-10T17:56:00.493Z,23.25
2018-01-10T17:58:34.000Z,13.20
2018-01-10T18:01:07.601Z,15.57
2018-01-10T18:03:41.120Z,13.45
2018-01-10T18:06:14.683Z,10.85
2018-01-10T18:08:48.258Z,12.00
2018-01-10T18:11:21.820Z,14.25
2018-01-10T18:13:56.112Z,17.52
2018-01-10T18:16:29.799Z,32.17
2018-01-10T18:19:03.420Z,33.65
2018-01-10T18:21:37.015Z,37.38
2018-01-10T18:24:10.537Z,27.27
2018-01-10T18:26:44.109Z,12.32
2018-01-10T18:29:17.700Z,10.00
2018-01-10T18:31:52.149Z,15.57
2018-01-10T18:34:25.695Z,17.77
2018-01-10T18:36:59.332Z,29.95
2018-01-10T18:39:33.036Z,31.35
2018-01-10T18:42:06.559Z,21.00
2018-01-10T18:44:40.123Z,18.20
2018-01-10T18:47:13.734Z,14.23
2018-01-10T18:49:48.154Z,10.57
2018-01-10T18:52:21.717Z,6.18
2018-01-10T18:54:55.228Z,7.05
2018-01-10T18:57:28.804Z,6.97
2018-01-10T19:00:02.469Z,6.80
2018-01-10T19:02:36.016Z,5.82
2018-01-10T19:05:09.632Z,5.87
2018-01-10T19:07:43.971Z,7.20
2018-01-10T19:10:17.683Z,7.05
2018-01-10T19:12:51.267Z,7.40
2018-01-10T19:15:24.866Z,6.18
2018-01-10T19:17:58.683Z,6.00
2018-01-10T19:20:32.187Z,6.43
2018-01-10T19:23:05.895Z,9.85
2018-01-10T19:25:40.192Z,8.13
2018-01-10T19:28:13.780Z,8.32
2018-01-10T19:30:47.331Z,11.30
2018-01-10T19:33:21.024Z,12.68
2018-01-10T19:35:54.547Z,9.48
2018-01-10T19:38:28.297Z,9.75
2018-01-10T19:41:02.601Z,8.65
2018-01-10T19:43:36.342Z,8.75
2018-01-10T19:46:09.898Z,11.38
2018-01-10T19:48:43.528Z,11.45
2018-01-10T19:51:17.191Z,14.95
2018-01-10T19:53:50.806Z,9.05
2018-01-10T19:56:24.539Z,12.43
2018-01-10T19:58:58.264Z,13.95
2018-01-10T20:01:32.569Z,10.45
2018-01-10T20:04:06.247Z,7.50
2018-01-10T20:06:39.771Z,6.87
2018-01-10T20:09:13.354Z,6.30
2018-01-10T20:11:46.880Z,6.32
2018-01-10T20:14:21.302Z,7.25
2018-01-10T20:16:55.079Z,7.10
2018-01-10T20:19:28.602Z,6.57
2018-01-10T20:22:02.197Z,9.40
2018-01-10T20:24:35.796Z,17.12
2018-01-10T20:27:09.372Z,13.60
2018-01-10T20:29:42.961Z,15.20
2018-01-10T20:32:16.492Z,18.80
2018-01-10T20:34:50.061Z,18.37
2018-01-10T20:37:23.674Z,16.98
2018-01-10T20:39:57.260Z,19.25
2018-01-10T20:42:30.801Z,18.52
2018-01-10T20:45:04.438Z,19.67
2018-01-10T20:47:37.980Z,20.25
2018-01-10T20:50:11.737Z,18.92
2018-01-10T20:52:45.428Z,18.40
2018-01-10T20:55:19.828Z,15.93
2018-01-10T20:57:53.674Z,14.48
2018-01-10T21:00:27.197Z,15.50
2018-01-10T21:03:00.770Z,13.70
2018-01-10T21:05:34.502Z,35.70
2018-01-10T21:08:08.104Z,26.25
2018-01-10T21:10:41.579Z,11.12
2018-01-10T21:13:15.097Z,8.43
2018-01-10T21:15:48.630Z,7.12
2018-01-10T21:18:22.274Z,7.55
2018-01-10T21:20:56.002Z,15.55
2018-01-10T21:23:29.544Z,7.40
2018-01-10T21:26:03.822Z,19.70
2018-01-10T21:28:37.544Z,10.48
2018-01-10T21:31:11.179Z,11.95
2018-01-10T21:33:44.754Z,13.20
2018-01-10T21:36:18.371Z,11.60
2018-01-10T21:38:52.056Z,12.30
2018-01-10T21:41:27.101Z,12.48
2018-01-10T21:44:00.815Z,12.18
2018-01-10T21:46:34.452Z,11.10
2018-01-10T21:49:08.280Z,15.20
2018-01-10T21:51:42.824Z,15.93
2018-01-10T21:54:16.440Z,16.30
2018-01-10T21:56:50.055Z,18.25
2018-01-10T21:59:23.586Z,23.85
2018-01-10T22:01:57.174Z,21.75
2018-01-10T22:04:30.760Z,22.30
2018-01-10T22:07:05.013Z,15.25
2018-01-10T22:09:40.140Z,14.15
2018-01-10T22:12:15.321Z,11.75
2018-01-10T22:14:49.082Z,12.10
2018-01-10T22:17:23.581Z,10.45
2018-01-10T22:20:13.154Z,24.52
2018-01-10T22:22:47.078Z,19.30
2018-01-10T22:25:20.755Z,18.10
2018-01-10T22:27:54.537Z,17.10
2018-01-10T22:30:37.291Z,17.83
2018-01-10T22:33:11.119Z,17.55
2018-01-10T22:35:44.891Z,16.30
2018-01-10T22:38:19.925Z,20.00
2018-01-10T22:40:53.848Z,20.05
2018-01-10T22:43:27.568Z,18.05
2018-01-10T22:46:02.158Z,18.62
2018-01-10T22:48:36.707Z,17.25
2018-01-10T22:51:11.063Z,22.05
2018-01-10T22:53:44.787Z,21.67
2018-01-10T22:56:19.072Z,21.90
2018-01-10T22:58:52.941Z,19.30
2018-01-10T23:01:27.661Z,18.20
2018-01-10T23:04:02.354Z,17.67
2018-01-10T23:06:36.716Z,23.55
2018-01-10T23:09:10.597Z,26.02
2018-01-10T23:11:46.852Z,31.23
2018-01-10T23:14:21.340Z,29.02
2018-01-10T23:16:55.057Z,28.00
2018-01-10T23:19:29.851Z,30.05
2018-01-10T23:22:04.276Z,23.75
2018-01-10T23:24:37.972Z,19.83
2018-01-10T23:27:11.786Z,20.23
2018-01-10T23:29:45.668Z,18.15
2018-01-10T23:32:19.505Z,20.12
2018-01-10T23:34:54.302Z,17.20
2018-01-10T23:37:28.015Z,16.33
2018-01-10T23:40:01.876Z,15.13
2018-01-10T23:42:35.838Z,47.22
2018-01-10T23:45:09.549Z,39.25
2018-01-10T23:47:44.220Z,74.40
2018-01-10T23:50:18.124Z,39.38
2018-01-10T23:52:52.265Z,44.78
2018-01-10T23:55:26.084Z,17.70
2018-01-10T23:58:01.237Z,17.02
